createdAt,value
2018-09-17T00:00:15.284Z,0.00
2018-09-17T00:01:15.259Z,0.00
2018-09-17T00:02:15.211Z,0.00
2018-09-17T00:03:15.177Z,0.00
2018-09-17T00:04:15.123Z,0.00
2018-09-17T00:05:15.122Z,0.00
2018-09-17T00:06:15.042Z,0.00
2018-09-17T00:07:15.009Z,0.00
2018-09-17T00:08:14.968Z,0.00
2018-09-17T00:09:14.921Z,0.00
2018-09-17T00:10:14.882Z,0.00
2018-09-17T00:11:14.831Z,0.00
2018-09-17T00:12:14.800Z,0.00
2018-09-17T00:13:14.771Z,0.00
2018-09-17T00:14:14.729Z,0.00
2018-09-17T00:15:14.685Z,0.00
2018-09-17T00:16:14.649Z,0.00
2018-09-17T00:17:14.637Z,0.00
2018-09-17T00:18:14.577Z,0.00
2018-09-17T00:19:14.540Z,0.00
2018-09-17T00:20:14.489Z,0.00
2018-09-17T00:21:14.438Z,0.00
2018-09-17T00:22:14.406Z,0.00
2018-09-17T00:23:14.350Z,0.00
2018-09-17T00:24:14.324Z,0.00
2018-09-17T00:25:14.276Z,0.00
2018-09-17T00:26:14.258Z,0.00
2018-09-17T00:27:14.200Z,0.00
2018-09-17T00:28:14.179Z,0.00
2018-09-17T00:29:14.133Z,0.00
2018-09-17T00:30:14.113Z,0.00
2018-09-17T00:31:14.045Z,0.00
2018-09-17T00:32:13.992Z,0.00
2018-09-17T00:33:13.979Z,0.00
2018-09-17T00:34:13.952Z,0.00
2018-09-17T00:35:13.896Z,0.00
2018-09-17T00:36:13.842Z,0.00
2018-09-17T00:37:13.794Z,0.00
2018-09-17T00:38:13.845Z,0.00
2018-09-17T00:39:13.709Z,0.00
2018-09-17T00:40:13.695Z,0.00
2018-09-17T00:41:13.632Z,0.00
2018-09-17T00:42:13.599Z,0.00
2018-09-17T00:43:13.565Z,0.00
2018-09-17T00:44:13.516Z,0.00
2018-09-17T00:45:13.469Z,0.00
2018-09-17T00:46:13.427Z,0.00
2018-09-17T00:47:13.383Z,0.00
2018-09-17T00:48:13.350Z,0.00
2018-09-17T00:49:13.305Z,0.00
2018-09-17T00:50:13.271Z,0.00
2018-09-17T00:51:13.213Z,0.00
2018-09-17T00:52:13.186Z,0.00
2018-09-17T00:53:13.142Z,0.00
2018-09-17T00:54:13.109Z,0.00
2018-09-17T00:55:13.062Z,0.00
2018-09-17T00:56:13.020Z,0.00
2018-09-17T00:57:13.005Z,0.00
2018-09-17T00:58:12.948Z,0.00
2018-09-17T00:59:12.903Z,0.00
2018-09-17T01:00:12.857Z,0.00
2018-09-17T01:01:12.925Z,0.00
2018-09-17T01:02:12.775Z,0.00
2018-09-17T01:03:12.745Z,0.00
2018-09-17T01:04:12.706Z,0.00
2018-09-17T01:05:12.759Z,0.00
2018-09-17T01:06:12.617Z,0.00
2018-09-17T01:07:12.584Z,0.00
2018-09-17T01:08:12.541Z,0.00
2018-09-17T01:09:12.501Z,0.00
2018-09-17T01:10:12.473Z,0.00
2018-09-17T01:11:12.408Z,0.00
2018-09-17T01:12:12.372Z,0.00
2018-09-17T01:13:12.330Z,0.00
2018-09-17T01:14:12.304Z,0.00
2018-09-17T01:15:12.261Z,0.00
2018-09-17T01:16:12.218Z,0.00
2018-09-17T01:17:12.172Z,0.00
2018-09-17T01:18:12.156Z,0.00
2018-09-17T01:19:12.090Z,0.00
2018-09-17T01:20:12.061Z,0.00
2018-09-17T01:21:12.031Z,0.00
2018-09-17T01:22:11.970Z,0.00
2018-09-17T01:23:11.930Z,0.00
2018-09-17T01:24:11.888Z,0.00
2018-09-17T01:25:11.849Z,0.00
2018-09-17T01:26:11.806Z,0.00
2018-09-17T01:27:11.765Z,0.00
2018-09-17T01:28:11.739Z,0.00
2018-09-17T01:29:11.686Z,0.00
2018-09-17T01:30:11.634Z,0.00
2018-09-17T01:31:11.629Z,0.00
2018-09-17T01:32:11.584Z,0.00
2018-09-17T01:33:11.524Z,0.00
2018-09-17T01:34:11.474Z,0.00
2018-09-17T01:35:11.445Z,0.00
2018-09-17T01:36:11.398Z,0.00
2018-09-17T01:37:11.363Z,0.00
2018-09-17T01:38:11.335Z,0.00
2018-09-17T01:39:11.310Z,0.00
2018-09-17T01:40:11.250Z,0.00
2018-09-17T01:41:11.225Z,0.00
2018-09-17T01:42:11.185Z,0.00
2018-09-17T01:43:11.173Z,0.00
2018-09-17T01:44:11.090Z,0.00
2018-09-17T01:45:11.042Z,0.00
2018-09-17T01:46:11.023Z,0.00
2018-09-17T01:47:10.969Z,0.00
2018-09-17T01:48:10.909Z,0.00
2018-09-17T01:49:10.887Z,0.00
2018-09-17T01:50:10.832Z,0.00
2018-09-17T01:51:10.783Z,0.00
2018-09-17T01:52:10.757Z,0.00
2018-09-17T01:53:10.738Z,0.00
2018-09-17T01:54:10.681Z,0.00
2018-09-17T01:55:11.524Z,0.00
2018-09-17T01:56:10.587Z,0.00
2018-09-17T01:57:10.564Z,0.00
2018-09-17T01:58:10.525Z,0.00
2018-09-17T01:59:10.485Z,0.00
2018-09-17T02:00:11.046Z,0.00
2018-09-17T02:01:10.436Z,0.00
2018-09-17T02:02:10.333Z,0.00
2018-09-17T02:03:10.301Z,0.00
2018-09-17T02:04:10.247Z,0.00
2018-09-17T02:05:10.219Z,0.00
2018-09-17T02:06:10.183Z,0.00
2018-09-17T02:07:10.190Z,0.00
2018-09-17T02:08:10.155Z,0.00
2018-09-17T02:09:10.114Z,0.00
2018-09-17T02:10:10.020Z,0.00
2018-09-17T02:11:09.975Z,0.00
2018-09-17T02:12:09.925Z,0.00
2018-09-17T02:13:09.894Z,0.00
2018-09-17T02:14:09.848Z,0.00
2018-09-17T02:15:09.806Z,0.00
2018-09-17T02:16:09.761Z,0.00
2018-09-17T02:17:09.730Z,0.00
2018-09-17T02:18:09.692Z,0.00
2018-09-17T02:19:09.666Z,0.00
2018-09-17T02:20:09.615Z,0.00
2018-09-17T02:21:09.572Z,0.00
2018-09-17T02:22:09.521Z,0.00
2018-09-17T02:23:09.495Z,0.00
2018-09-17T02:24:09.458Z,0.00
2018-09-17T02:25:09.475Z,0.00
2018-09-17T02:26:09.389Z,0.00
2018-09-17T02:27:09.344Z,0.00
2018-09-17T02:28:09.274Z,0.00
2018-09-17T02:29:09.302Z,0.00
2018-09-17T02:30:09.191Z,0.00
2018-09-17T02:31:09.172Z,0.00
2018-09-17T02:32:09.119Z,0.00
2018-09-17T02:33:09.090Z,0.00
2018-09-17T02:34:09.242Z,0.00
2018-09-17T02:35:08.986Z,0.00
2018-09-17T02:36:08.980Z,0.00
2018-09-17T02:37:08.924Z,0.00
2018-09-17T02:38:08.874Z,0.00
2018-09-17T02:39:08.833Z,0.00
2018-09-17T02:40:08.798Z,0.00
2018-09-17T02:41:08.745Z,0.00
2018-09-17T02:42:08.708Z,0.00
2018-09-17T02:43:08.666Z,0.00
2018-09-17T02:44:08.657Z,0.00
2018-09-17T02:45:08.582Z,0.00
2018-09-17T02:46:08.552Z,0.00
2018-09-17T02:47:08.501Z,0.00
2018-09-17T02:48:08.518Z,0.00
2018-09-17T02:49:08.439Z,0.00
2018-09-17T02:50:08.401Z,0.00
2018-09-17T02:51:08.336Z,0.00
2018-09-17T02:52:08.290Z,0.00
2018-09-17T02:53:08.263Z,0.00
2018-09-17T02:54:08.226Z,0.00
2018-09-17T02:55:08.184Z,0.00
2018-09-17T02:56:08.133Z,0.00
2018-09-17T02:57:08.115Z,0.00
2018-09-17T02:58:08.069Z,0.00
2018-09-17T02:59:08.059Z,0.00
2018-09-17T03:00:08.019Z,0.00
2018-09-17T03:01:07.925Z,0.00
2018-09-17T03:02:07.896Z,0.00
2018-09-17T03:03:07.859Z,0.00
2018-09-17T03:04:12.589Z,0.00
2018-09-17T03:05:07.774Z,0.00
2018-09-17T03:06:07.734Z,0.00
2018-09-17T03:07:07.755Z,0.00
2018-09-17T03:08:07.685Z,0.00
2018-09-17T03:09:07.605Z,0.00
2018-09-17T03:10:07.569Z,0.00
2018-09-17T03:11:07.528Z,0.00
2018-09-17T03:12:07.479Z,0.00
2018-09-17T03:13:07.461Z,0.00
2018-09-17T03:14:07.431Z,0.00
2018-09-17T03:15:07.414Z,0.00
2018-09-17T03:16:07.322Z,0.00
2018-09-17T03:17:07.293Z,0.00
2018-09-17T03:18:07.258Z,0.00
2018-09-17T03:19:07.201Z,0.00
2018-09-17T03:20:07.175Z,0.00
2018-09-17T03:21:07.126Z,0.00
2018-09-17T03:22:07.085Z,0.00
2018-09-17T03:23:07.037Z,0.00
2018-09-17T03:24:07.006Z,0.00
2018-09-17T03:25:06.967Z,0.00
2018-09-17T03:26:06.918Z,0.00
2018-09-17T03:27:06.885Z,0.00
2018-09-17T03:28:06.830Z,0.00
2018-09-17T03:29:06.791Z,0.00
2018-09-17T03:30:06.737Z,0.00
2018-09-17T03:31:06.707Z,0.00
2018-09-17T03:32:06.675Z,0.00
2018-09-17T03:33:06.629Z,0.00
2018-09-17T03:34:06.596Z,0.00
2018-09-17T03:35:06.626Z,0.00
2018-09-17T03:36:06.510Z,0.00
2018-09-17T03:37:06.466Z,0.00
2018-09-17T03:38:06.425Z,0.00
2018-09-17T03:39:06.398Z,0.00
2018-09-17T03:40:06.350Z,0.00
2018-09-17T03:41:06.326Z,0.00
2018-09-17T03:42:06.301Z,0.00
2018-09-17T03:43:06.222Z,0.00
2018-09-17T03:44:06.186Z,0.00
2018-09-17T03:45:06.133Z,0.00
2018-09-17T03:46:06.146Z,0.00
2018-09-17T03:47:06.064Z,0.00
2018-09-17T03:48:06.034Z,0.00
2018-09-17T03:49:05.984Z,0.00
2018-09-17T03:50:05.927Z,0.00
2018-09-17T03:51:05.895Z,0.00
2018-09-17T03:52:05.843Z,0.00
2018-09-17T03:53:05.810Z,0.00
2018-09-17T03:54:05.775Z,0.00
2018-09-17T03:55:05.728Z,0.00
2018-09-17T03:56:05.713Z,0.00
2018-09-17T03:57:05.648Z,0.00
2018-09-17T03:58:05.603Z,0.00
2018-09-17T03:59:05.573Z,0.00
2018-09-17T04:00:05.533Z,0.00
2018-09-17T04:01:05.501Z,0.00
2018-09-17T04:02:05.506Z,0.00
2018-09-17T04:03:05.402Z,0.00
2018-09-17T04:04:05.380Z,0.00
2018-09-17T04:05:05.318Z,0.00
2018-09-17T04:06:05.280Z,0.00
2018-09-17T04:07:05.224Z,0.00
2018-09-17T04:08:05.197Z,0.00
2018-09-17T04:09:05.211Z,0.00
2018-09-17T04:10:05.137Z,0.00
2018-09-17T04:11:05.107Z,0.00
2018-09-17T04:12:05.027Z,0.00
2018-09-17T04:13:05.053Z,0.00
2018-09-17T04:14:04.946Z,0.00
2018-09-17T04:15:04.897Z,0.00
2018-09-17T04:16:04.881Z,0.00
2018-09-17T04:17:04.825Z,0.00
2018-09-17T04:18:04.788Z,4.00
2018-09-17T04:19:04.741Z,4.00
2018-09-17T04:20:04.698Z,4.00
2018-09-17T04:21:04.687Z,4.00
2018-09-17T04:22:04.616Z,8.00
2018-09-17T04:23:04.591Z,4.00
2018-09-17T04:24:04.577Z,8.00
2018-09-17T04:25:04.520Z,8.00
2018-09-17T04:26:04.455Z,12.00
2018-09-17T04:27:04.410Z,16.00
2018-09-17T04:28:04.372Z,16.00
2018-09-17T04:29:04.324Z,20.00
2018-09-17T04:30:04.286Z,20.00
2018-09-17T04:31:04.252Z,28.00
2018-09-17T04:32:04.196Z,36.00
2018-09-17T04:33:04.203Z,40.00
2018-09-17T04:34:04.141Z,48.00
2018-09-17T04:35:04.081Z,56.00
2018-09-17T04:36:04.964Z,68.00
2018-09-17T04:37:04.013Z,80.00
2018-09-17T04:38:03.987Z,92.00
2018-09-17T04:39:03.909Z,112.00
2018-09-17T04:40:03.882Z,132.00
2018-09-17T04:41:03.855Z,148.00
2018-09-17T04:42:03.802Z,172.00
2018-09-17T04:43:03.781Z,200.00
2018-09-17T04:44:03.719Z,224.00
2018-09-17T04:45:03.695Z,256.00
2018-09-17T04:46:03.664Z,284.00
2018-09-17T04:47:03.597Z,320.00
2018-09-17T04:48:03.590Z,356.00
2018-09-17T04:49:03.529Z,396.00
2018-09-17T04:50:03.465Z,436.00
2018-09-17T04:51:03.432Z,484.00
2018-09-17T04:52:03.374Z,532.00
2018-09-17T04:53:03.369Z,588.00
2018-09-17T04:54:03.310Z,648.00
2018-09-17T04:55:03.260Z,708.00
2018-09-17T04:56:03.210Z,784.00
2018-09-17T04:57:03.178Z,852.00
2018-09-17T04:58:03.181Z,924.00
2018-09-17T04:59:03.121Z,992.00
2018-09-17T05:00:03.058Z,1056.00
2018-09-17T05:01:03.020Z,1124.00
2018-09-17T05:02:03.103Z,1196.00
2018-09-17T05:03:02.942Z,1276.00
2018-09-17T05:04:02.893Z,1340.00
2018-09-17T05:05:02.850Z,1412.00
2018-09-17T05:06:02.872Z,1492.00
2018-09-17T05:07:02.768Z,1572.00
2018-09-17T05:08:02.774Z,1648.00
2018-09-17T05:09:02.692Z,1724.00
2018-09-17T05:10:02.649Z,1824.00
2018-09-17T05:11:02.618Z,1960.00
2018-09-17T05:12:02.595Z,2112.00
2018-09-17T05:13:02.628Z,2248.00
2018-09-17T05:14:02.485Z,2364.00
2018-09-17T05:15:02.461Z,2476.00
2018-09-17T05:16:02.406Z,2572.00
2018-09-17T05:17:02.352Z,2668.00
2018-09-17T05:18:02.320Z,2764.00
2018-09-17T05:19:02.290Z,2852.00
2018-09-17T05:20:02.289Z,2948.00
2018-09-17T05:21:02.245Z,3036.00
2018-09-17T05:22:02.162Z,3124.00
2018-09-17T05:23:02.111Z,3208.00
2018-09-17T05:24:02.055Z,3300.00
2018-09-17T05:25:02.024Z,3412.00
2018-09-17T05:26:01.986Z,3528.00
2018-09-17T05:27:01.943Z,3636.00
2018-09-17T05:28:01.908Z,3732.00
2018-09-17T05:29:01.864Z,3816.00
2018-09-17T05:30:01.830Z,3888.00
2018-09-17T05:31:01.793Z,3976.00
2018-09-17T05:32:01.759Z,4064.00
2018-09-17T05:33:01.702Z,4172.00
2018-09-17T05:34:01.647Z,4272.00
2018-09-17T05:35:01.659Z,4364.00
2018-09-17T05:36:01.572Z,4456.00
2018-09-17T05:37:01.535Z,4536.00
2018-09-17T05:38:01.488Z,4616.00
2018-09-17T05:39:01.446Z,4696.00
2018-09-17T05:40:01.414Z,4780.00
2018-09-17T05:41:01.365Z,4860.00
2018-09-17T05:42:01.406Z,4968.00
2018-09-17T05:43:01.294Z,5076.00
2018-09-17T05:44:01.250Z,5180.00
2018-09-17T05:45:01.217Z,5336.00
2018-09-17T05:46:01.181Z,5440.00
2018-09-17T05:47:01.127Z,5424.00
2018-09-17T05:48:01.110Z,5476.00
2018-09-17T05:49:01.111Z,5572.00
2018-09-17T05:50:01.012Z,5648.00
2018-09-17T05:51:00.995Z,5732.00
2018-09-17T05:52:00.915Z,5824.00
2018-09-17T05:53:00.901Z,5904.00
2018-09-17T05:54:00.845Z,5988.00
2018-09-17T05:55:00.824Z,6060.00
2018-09-17T05:56:00.760Z,6140.00
2018-09-17T05:57:00.718Z,6220.00
2018-09-17T05:58:00.674Z,6300.00
2018-09-17T05:59:00.642Z,6376.00
2018-09-17T06:00:00.605Z,6472.00
2018-09-17T06:01:00.570Z,6556.00
2018-09-17T06:02:00.520Z,6636.00
2018-09-17T06:03:00.493Z,6704.00
2018-09-17T06:04:00.459Z,6752.00
2018-09-17T06:05:00.451Z,6816.00
2018-09-17T06:06:00.476Z,6876.00
2018-09-17T06:07:00.370Z,6936.00
2018-09-17T06:08:00.285Z,6996.00
2018-09-17T06:09:00.247Z,7060.00
2018-09-17T06:10:00.203Z,7128.00
2018-09-17T06:11:00.180Z,7208.00
2018-09-17T06:12:00.127Z,7324.00
2018-09-17T06:13:00.088Z,7572.00
2018-09-17T06:14:00.038Z,7856.00
2018-09-17T06:15:00.025Z,7892.00
2018-09-17T06:15:59.950Z,7684.00
2018-09-17T06:16:59.936Z,7708.00
2018-09-17T06:17:59.870Z,7824.00
2018-09-17T06:18:59.848Z,8164.00
2018-09-17T06:19:59.800Z,8120.00
2018-09-17T06:20:59.774Z,7992.00
2018-09-17T06:21:59.748Z,8112.00
2018-09-17T06:22:59.676Z,8268.00
2018-09-17T06:23:59.623Z,8232.00
2018-09-17T06:24:59.598Z,8264.00
2018-09-17T06:25:59.562Z,8344.00
2018-09-17T06:26:59.504Z,8532.00
2018-09-17T06:27:59.579Z,9240.00
2018-09-17T06:28:59.427Z,9868.00
2018-09-17T06:29:59.421Z,10192.00
2018-09-17T06:30:59.357Z,9940.00
2018-09-17T06:31:59.329Z,8968.00
2018-09-17T06:32:59.326Z,8880.00
2018-09-17T06:33:59.242Z,9052.00
2018-09-17T06:34:59.208Z,9232.00
2018-09-17T06:35:59.177Z,9756.00
2018-09-17T06:36:59.160Z,10844.00
2018-09-17T06:37:59.097Z,11072.00
2018-09-17T06:38:59.070Z,10748.00
2018-09-17T06:39:59.014Z,10884.00
2018-09-17T06:40:58.980Z,11072.00
2018-09-17T06:41:58.953Z,12708.00
2018-09-17T06:42:58.917Z,16016.00
2018-09-17T06:43:58.861Z,21088.00
2018-09-17T06:44:58.879Z,24320.00
2018-09-17T06:45:58.775Z,25216.00
2018-09-17T06:46:58.743Z,26368.00
2018-09-17T06:47:58.687Z,26272.00
2018-09-17T06:48:58.695Z,25472.00
2018-09-17T06:49:58.659Z,25792.00
2018-09-17T06:50:58.645Z,25472.00
2018-09-17T06:51:58.571Z,28480.00
2018-09-17T06:52:58.544Z,29920.00
2018-09-17T06:53:58.501Z,32160.00
2018-09-17T06:54:58.488Z,30912.00
2018-09-17T06:55:58.418Z,29984.00
2018-09-17T06:56:58.398Z,29440.00
2018-09-17T06:57:58.382Z,30656.00
2018-09-17T06:58:58.398Z,31392.00
2018-09-17T06:59:58.265Z,30432.00
2018-09-17T07:00:58.232Z,30816.00
2018-09-17T07:01:58.203Z,32768.00
2018-09-17T07:02:58.170Z,33120.00
2018-09-17T07:03:58.152Z,32480.00
2018-09-17T07:04:58.112Z,32032.00
2018-09-17T07:05:58.067Z,33152.00
2018-09-17T07:06:58.044Z,33696.00
2018-09-17T07:07:58.003Z,33408.00
2018-09-17T07:08:57.981Z,34464.00
2018-09-17T07:09:57.977Z,34400.00
2018-09-17T07:10:57.922Z,34688.00
2018-09-17T07:11:57.916Z,33440.00
2018-09-17T07:12:57.869Z,33024.00
2018-09-17T07:13:57.829Z,33920.00
2018-09-17T07:14:57.821Z,34464.00
2018-09-17T07:15:57.798Z,36992.00
2018-09-17T07:16:57.784Z,39296.00
2018-09-17T07:17:57.740Z,38080.00
2018-09-17T07:18:57.697Z,36544.00
2018-09-17T07:19:57.705Z,37408.00
2018-09-17T07:20:57.647Z,36608.00
2018-09-17T07:21:57.614Z,35232.00
2018-09-17T07:22:57.588Z,27904.00
2018-09-17T07:23:57.556Z,22560.00
2018-09-17T07:24:57.585Z,26752.00
2018-09-17T07:25:57.513Z,28864.00
2018-09-17T07:26:57.486Z,35328.00
2018-09-17T07:27:57.443Z,39904.00
2018-09-17T07:28:57.415Z,42304.00
2018-09-17T07:29:57.405Z,40384.00
2018-09-17T07:30:57.366Z,39872.00
2018-09-17T07:31:57.350Z,40320.00
2018-09-17T07:32:57.331Z,37760.00
2018-09-17T07:33:57.281Z,32160.00
2018-09-17T07:34:57.270Z,35040.00
2018-09-17T07:35:57.240Z,37856.00
2018-09-17T07:36:57.200Z,26272.00
2018-09-17T07:37:57.180Z,16432.00
2018-09-17T07:38:57.157Z,15992.00
2018-09-17T07:39:57.115Z,18364.00
2018-09-17T07:40:57.117Z,17536.00
2018-09-17T07:41:57.079Z,19020.00
2018-09-17T07:42:57.039Z,23712.00
2018-09-17T07:43:57.027Z,25184.00
2018-09-17T07:44:56.981Z,21952.00
2018-09-17T07:45:56.952Z,18352.00
2018-09-17T07:46:56.931Z,24736.00
2018-09-17T07:47:56.947Z,32864.00
2018-09-17T07:48:56.882Z,23680.00
2018-09-17T07:49:56.837Z,27712.00
2018-09-17T07:50:56.804Z,20160.00
2018-09-17T07:51:56.786Z,17920.00
2018-09-17T07:52:56.787Z,15504.00
2018-09-17T07:53:56.773Z,17256.00
2018-09-17T07:54:56.685Z,17872.00
2018-09-17T07:55:56.674Z,15416.00
2018-09-17T07:56:56.631Z,15372.00
2018-09-17T07:57:56.629Z,16568.00
2018-09-17T07:58:56.594Z,16116.00
2018-09-17T07:59:56.549Z,16216.00
2018-09-17T08:00:56.535Z,18480.00
2018-09-17T08:01:56.469Z,25120.00
2018-09-17T08:02:56.449Z,25792.00
2018-09-17T08:03:56.433Z,16080.00
2018-09-17T08:04:56.399Z,15092.00
2018-09-17T08:05:56.360Z,15276.00
2018-09-17T08:06:56.324Z,15644.00
2018-09-17T08:07:56.315Z,17628.00
2018-09-17T08:08:56.276Z,17616.00
2018-09-17T08:09:56.229Z,15492.00
2018-09-17T08:10:56.195Z,15440.00
2018-09-17T08:11:56.191Z,15196.00
2018-09-17T08:12:56.148Z,15272.00
2018-09-17T08:13:56.118Z,15344.00
2018-09-17T08:14:56.095Z,15432.00
2018-09-17T08:15:56.065Z,15596.00
2018-09-17T08:16:56.032Z,15580.00
2018-09-17T08:17:56.155Z,17412.00
2018-09-17T08:18:55.954Z,18372.00
2018-09-17T08:19:55.933Z,15900.00
2018-09-17T08:20:55.926Z,16152.00
2018-09-17T08:21:55.887Z,16216.00
2018-09-17T08:22:55.827Z,16016.00
2018-09-17T08:23:55.812Z,16100.00
2018-09-17T08:24:55.769Z,16212.00
2018-09-17T08:25:55.745Z,16284.00
2018-09-17T08:26:55.695Z,16544.00
2018-09-17T08:27:55.680Z,18052.00
2018-09-17T08:28:55.642Z,17596.00
2018-09-17T08:29:55.627Z,17544.00
2018-09-17T08:30:55.600Z,18704.00
2018-09-17T08:31:55.551Z,17596.00
2018-09-17T08:32:55.533Z,17584.00
2018-09-17T08:33:55.537Z,20028.00
2018-09-17T08:34:55.460Z,18208.00
2018-09-17T08:35:55.429Z,18484.00
2018-09-17T08:36:55.408Z,25056.00
2018-09-17T08:37:55.395Z,26496.00
2018-09-17T08:38:55.345Z,26816.00
2018-09-17T08:39:55.324Z,35424.00
2018-09-17T08:40:55.269Z,35200.00
2018-09-17T08:41:55.272Z,34528.00
2018-09-17T08:42:55.223Z,48000.00
2018-09-17T08:43:55.210Z,66336.00
2018-09-17T08:44:55.185Z,69216.00
2018-09-17T08:45:55.131Z,74016.00
2018-09-17T08:46:55.100Z,77216.00
2018-09-17T08:47:55.065Z,79808.00
2018-09-17T08:48:55.048Z,49920.00
2018-09-17T08:49:55.065Z,78976.00
2018-09-17T08:50:55.000Z,80768.00
2018-09-17T08:51:54.960Z,56288.00
2018-09-17T08:52:55.015Z,32448.00
2018-09-17T08:53:54.907Z,28512.00
2018-09-17T08:54:54.880Z,47712.00
2018-09-17T08:55:54.850Z,60416.00
2018-09-17T08:56:54.835Z,55328.00
2018-09-17T08:57:54.792Z,61376.00
2018-09-17T08:58:54.774Z,50432.00
2018-09-17T08:59:54.744Z,49792.00
2018-09-17T09:00:54.717Z,35744.00
2018-09-17T09:01:54.718Z,49632.00
2018-09-17T09:02:54.662Z,30208.00
2018-09-17T09:03:54.675Z,45504.00
2018-09-17T09:04:54.663Z,62720.00
2018-09-17T09:05:54.590Z,59776.00
2018-09-17T09:06:54.566Z,46368.00
2018-09-17T09:07:54.551Z,54560.00
2018-09-17T09:08:54.520Z,55616.00
2018-09-17T09:09:54.499Z,61984.00
2018-09-17T09:10:54.477Z,78752.00
2018-09-17T09:11:54.443Z,80288.00
2018-09-17T09:12:54.422Z,82912.00
2018-09-17T09:13:54.507Z,81536.00
2018-09-17T09:14:54.373Z,68256.00
2018-09-17T09:15:54.357Z,65344.00
2018-09-17T09:16:54.348Z,64928.00
2018-09-17T09:17:54.323Z,72864.00
2018-09-17T09:18:54.309Z,71840.00
2018-09-17T09:19:54.304Z,75584.00
2018-09-17T09:20:54.229Z,67616.00
2018-09-17T09:21:54.209Z,60512.00
2018-09-17T09:22:54.255Z,59936.00
2018-09-17T09:23:54.176Z,45632.00
2018-09-17T09:24:54.159Z,48608.00
2018-09-17T09:25:54.133Z,46880.00
2018-09-17T09:26:54.111Z,53728.00
2018-09-17T09:27:54.077Z,62688.00
2018-09-17T09:28:54.069Z,70880.00
2018-09-17T09:29:54.022Z,65088.00
2018-09-17T09:30:54.053Z,60896.00
2018-09-17T09:31:53.997Z,61920.00
2018-09-17T09:32:53.964Z,68544.00
2018-09-17T09:33:53.969Z,73952.00
2018-09-17T09:34:53.908Z,74304.00
2018-09-17T09:35:53.920Z,73920.00
2018-09-17T09:36:53.859Z,70464.00
2018-09-17T09:37:53.869Z,74816.00
2018-09-17T09:38:53.840Z,71296.00
2018-09-17T09:39:53.827Z,69472.00
2018-09-17T09:40:53.795Z,66592.00
2018-09-17T09:41:53.767Z,67744.00
2018-09-17T09:42:53.757Z,71328.00
2018-09-17T09:43:53.710Z,70848.00
2018-09-17T09:44:53.726Z,66432.00
2018-09-17T09:45:53.672Z,67328.00
2018-09-17T09:46:53.671Z,71168.00
2018-09-17T09:47:53.656Z,71616.00
2018-09-17T09:48:53.633Z,68448.00
2018-09-17T09:49:53.609Z,68096.00
2018-09-17T09:50:53.558Z,70208.00
2018-09-17T09:51:53.588Z,76288.00
2018-09-17T09:52:53.546Z,68256.00
2018-09-17T09:53:53.497Z,73472.00
2018-09-17T09:54:53.479Z,78336.00
2018-09-17T09:55:53.470Z,77824.00
2018-09-17T09:56:53.441Z,72480.00
2018-09-17T09:57:53.417Z,79200.00
2018-09-17T09:58:53.409Z,77152.00
2018-09-17T09:59:53.393Z,79072.00
2018-09-17T10:00:53.369Z,78080.00
2018-09-17T10:01:53.347Z,75008.00
2018-09-17T10:02:53.328Z,78624.00
2018-09-17T10:03:53.299Z,74112.00
2018-09-17T10:04:53.298Z,80128.00
2018-09-17T10:05:53.293Z,83808.00
2018-09-17T10:06:53.261Z,82688.00
2018-09-17T10:07:53.223Z,86976.00
2018-09-17T10:08:53.239Z,82848.00
2018-09-17T10:09:53.199Z,87584.00
2018-09-17T10:10:53.196Z,80608.00
2018-09-17T10:11:53.167Z,83328.00
2018-09-17T10:12:53.163Z,82336.00
2018-09-17T10:13:53.116Z,79744.00
2018-09-17T10:14:53.184Z,75104.00
2018-09-17T10:15:53.090Z,77504.00
2018-09-17T10:16:53.109Z,77504.00
2018-09-17T10:17:53.065Z,75872.00
2018-09-17T10:18:53.027Z,76640.00
2018-09-17T10:19:53.021Z,75136.00
2018-09-17T10:20:52.983Z,80320.00
2018-09-17T10:21:52.971Z,76320.00
2018-09-17T10:22:52.934Z,77408.00
2018-09-17T10:23:52.934Z,81600.00
2018-09-17T10:24:52.942Z,85600.00
2018-09-17T10:25:52.895Z,84960.00
2018-09-17T10:26:52.883Z,81984.00
2018-09-17T10:27:52.857Z,82304.00
2018-09-17T10:28:52.829Z,80032.00
2018-09-17T10:29:52.907Z,76704.00
2018-09-17T10:30:52.813Z,77184.00
2018-09-17T10:31:52.809Z,83264.00
2018-09-17T10:32:52.760Z,82848.00
2018-09-17T10:33:52.799Z,80224.00
2018-09-17T10:34:52.752Z,71712.00
2018-09-17T10:35:52.707Z,75456.00
2018-09-17T10:36:52.703Z,81504.00
2018-09-17T10:37:52.673Z,74752.00
2018-09-17T10:38:52.669Z,67488.00
2018-09-17T10:39:52.613Z,66400.00
2018-09-17T10:40:52.721Z,67712.00
2018-09-17T10:41:52.609Z,69280.00
2018-09-17T10:42:52.620Z,75168.00
2018-09-17T10:43:52.564Z,78496.00
2018-09-17T10:44:52.604Z,75840.00
2018-09-17T10:45:52.543Z,72032.00
2018-09-17T10:46:52.570Z,68192.00
2018-09-17T10:47:52.500Z,65920.00
2018-09-17T10:48:52.446Z,65312.00
2018-09-17T10:49:52.437Z,68320.00
2018-09-17T10:50:52.435Z,70080.00
2018-09-17T10:51:52.469Z,70240.00
2018-09-17T10:52:52.369Z,67104.00
2018-09-17T10:53:52.344Z,62336.00
2018-09-17T10:54:52.363Z,62944.00
2018-09-17T10:55:52.306Z,67808.00
2018-09-17T10:56:52.293Z,61472.00
2018-09-17T10:57:52.273Z,67296.00
2018-09-17T10:58:52.263Z,76704.00
2018-09-17T10:59:52.240Z,82496.00
2018-09-17T11:00:52.206Z,81472.00
2018-09-17T11:01:52.197Z,81184.00
2018-09-17T11:02:52.185Z,77600.00
2018-09-17T11:03:52.158Z,76832.00
2018-09-17T11:04:52.140Z,76096.00
2018-09-17T11:05:52.125Z,79520.00
2018-09-17T11:06:52.097Z,74336.00
2018-09-17T11:07:52.084Z,73920.00
2018-09-17T11:08:52.058Z,72672.00
2018-09-17T11:09:52.057Z,75776.00
2018-09-17T11:10:52.019Z,67360.00
2018-09-17T11:11:52.003Z,67872.00
2018-09-17T11:12:51.980Z,69664.00
2018-09-17T11:13:51.964Z,72960.00
2018-09-17T11:14:51.945Z,82816.00
2018-09-17T11:15:51.953Z,81440.00
2018-09-17T11:16:51.903Z,78624.00
2018-09-17T11:17:51.908Z,73440.00
2018-09-17T11:18:51.876Z,74688.00
2018-09-17T11:19:51.853Z,71296.00
2018-09-17T11:20:51.818Z,78592.00
2018-09-17T11:21:51.812Z,73408.00
2018-09-17T11:22:51.792Z,74368.00
2018-09-17T11:23:51.779Z,74112.00
2018-09-17T11:24:51.753Z,68672.00
2018-09-17T11:25:51.732Z,67200.00
2018-09-17T11:26:51.724Z,63456.00
2018-09-17T11:27:51.739Z,74176.00
2018-09-17T11:28:51.680Z,83296.00
2018-09-17T11:29:51.668Z,84032.00
2018-09-17T11:30:51.643Z,75840.00
2018-09-17T11:31:51.614Z,82720.00
2018-09-17T11:32:51.636Z,83072.00
2018-09-17T11:33:51.580Z,82784.00
2018-09-17T11:34:51.566Z,81440.00
2018-09-17T11:35:51.556Z,23936.00
2018-09-17T11:36:51.535Z,29696.00
2018-09-17T11:37:51.517Z,88544.00
2018-09-17T11:38:51.490Z,102528.00
2018-09-17T11:39:51.478Z,98560.00
2018-09-17T11:40:51.464Z,96704.00
2018-09-17T11:41:51.420Z,91424.00
2018-09-17T11:42:51.431Z,90112.00
2018-09-17T11:43:51.414Z,86944.00
2018-09-17T11:44:51.377Z,84416.00
2018-09-17T11:45:51.345Z,90592.00
2018-09-17T11:46:51.318Z,101568.00
2018-09-17T11:47:51.302Z,99936.00
2018-09-17T11:48:51.290Z,92672.00
2018-09-17T11:49:51.321Z,92736.00
2018-09-17T11:50:51.254Z,100672.00
2018-09-17T11:51:51.236Z,99136.00
2018-09-17T11:52:51.233Z,91168.00
2018-09-17T11:53:51.255Z,85120.00
2018-09-17T11:54:51.182Z,58080.00
2018-09-17T11:55:51.163Z,47584.00
2018-09-17T11:56:51.152Z,47904.00
2018-09-17T11:57:51.109Z,50112.00
2018-09-17T11:58:51.090Z,50976.00
2018-09-17T11:59:51.077Z,52128.00
2018-09-17T12:00:51.056Z,47072.00
2018-09-17T12:01:51.089Z,46400.00
2018-09-17T12:02:51.032Z,49248.00
2018-09-17T12:03:51.023Z,48960.00
2018-09-17T12:04:50.975Z,48576.00
2018-09-17T12:05:50.990Z,47360.00
2018-09-17T12:06:50.961Z,48320.00
2018-09-17T12:07:50.943Z,51616.00
2018-09-17T12:08:50.920Z,51936.00
2018-09-17T12:09:50.907Z,50752.00
2018-09-17T12:10:50.857Z,53760.00
2018-09-17T12:11:50.848Z,56864.00
2018-09-17T12:12:50.833Z,57504.00
2018-09-17T12:13:50.814Z,32096.00
2018-09-17T12:14:50.810Z,27712.00
2018-09-17T12:15:50.795Z,25920.00
2018-09-17T12:16:50.744Z,24960.00
2018-09-17T12:17:50.746Z,24448.00
2018-09-17T12:18:50.731Z,29728.00
2018-09-17T12:19:50.677Z,47616.00